Pagrindinis puslapis
METAR-TAF:

METAR-TAF

Oro uostai :

Mount Shasta, Kalifornija, Jungtinės Amerikos Valstijos

platuma: 41-18-57N, ilguma: 122-18-58W, Aukštis: 1077 m

Dabartinis oras

Ataskaita buvo paskelbta 58 minutes, ne 22:56 UTC
Ramus vėjas
Temperatūra 12°C
Drėgmė 26%
Slėgis 1021 hPa
Matomumas: 16.1 km
Giedras dangus

METAR: KMHS 252256Z AUTO 00000KT 10SM CLR 12/M07 A3014 RMK AO2 SLP227 T01171072

Laikas: 15:54 (23:54 UTC)


TAF: trūkstamas

Orai ataskaitas ir orų prognozės (METAR, TAF).

turimą stotys yra geltonos ir raudonos taškus žemėlapyje.

Perkelti pele per norėdami pamatyti stoties vardą.

Tada spustelėkite, norėdami matyti oro stebėjimo ir prognozės.

Norėdami pakeisti žemėlapį: spustelėkite ant žalios mygtukų su juodo kryžiaus žemyn,; žalią mygtuką su brūkšneliu, jei norite nutolinti; arba žalių rodyklių gretimoms žemėlapius.


METAR-TAF: